sensor_id;sensor_type;location;lat;lon;timestamp;pressure;altitude;pressure_sealevel;temperature;humidity
36692;BME280;22678;52.052;4.242;2023-03-14T00:00:29;98861.16;;;10.65;77.77
36692;BME280;22678;52.052;4.242;2023-03-14T00:02:55;98854.13;;;10.66;77.92
36692;BME280;22678;52.052;4.242;2023-03-14T00:05:20;98873.25;;;10.69;78.07
36692;BME280;22678;52.052;4.242;2023-03-14T00:07:45;98863.53;;;10.72;78.41
36692;BME280;22678;52.052;4.242;2023-03-14T00:10:13;98862.88;;;10.66;78.43
36692;BME280;22678;52.052;4.242;2023-03-14T00:12:40;98862.03;;;10.66;78.61
36692;BME280;22678;52.052;4.242;2023-03-14T00:15:06;98850.88;;;10.59;79.12
36692;BME280;22678;52.052;4.242;2023-03-14T00:17:33;98849.97;;;10.60;79.58
36692;BME280;22678;52.052;4.242;2023-03-14T00:19:58;98865.81;;;10.59;80.15
36692;BME280;22678;52.052;4.242;2023-03-14T00:22:34;98851.16;;;10.53;80.81
36692;BME280;22678;52.052;4.242;2023-03-14T00:24:59;98857.25;;;10.54;81.07
36692;BME280;22678;52.052;4.242;2023-03-14T00:27:24;98871.34;;;10.51;81.59
36692;BME280;22678;52.052;4.242;2023-03-14T00:29:50;98871.53;;;10.46;81.98
36692;BME280;22678;52.052;4.242;2023-03-14T00:32:16;98841.28;;;10.36;82.47
36692;BME280;22678;52.052;4.242;2023-03-14T00:34:41;98857.09;;;10.34;82.80
36692;BME280;22678;52.052;4.242;2023-03-14T00:37:07;98846.94;;;10.25;83.39
36692;BME280;22678;52.052;4.242;2023-03-14T00:39:32;98873.94;;;10.29;83.82
36692;BME280;22678;52.052;4.242;2023-03-14T00:41:57;98856.94;;;10.15;84.27
36692;BME280;22678;52.052;4.242;2023-03-14T00:44:22;98867.09;;;10.25;84.74
36692;BME280;22678;52.052;4.242;2023-03-14T00:46:49;98861.03;;;10.23;85.18
36692;BME280;22678;52.052;4.242;2023-03-14T00:49:14;98850.59;;;10.21;85.22
36692;BME280;22678;52.052;4.242;2023-03-14T00:51:40;98863.06;;;10.16;85.50
36692;BME280;22678;52.052;4.242;2023-03-14T00:54:06;98859.63;;;10.14;85.93
36692;BME280;22678;52.052;4.242;2023-03-14T00:56:31;98835.66;;;9.99;86.13
36692;BME280;22678;52.052;4.242;2023-03-14T00:58:56;98857.28;;;10.06;86.39
36692;BME280;22678;52.052;4.242;2023-03-14T01:01:22;98852.88;;;10.07;86.43
36692;BME280;22678;52.052;4.242;2023-03-14T01:03:51;98867.78;;;10.06;86.54
36692;BME280;22678;52.052;4.242;2023-03-14T01:06:21;98853.88;;;10.04;86.69
36692;BME280;22678;52.052;4.242;2023-03-14T01:08:47;98867.06;;;10.03;86.86
36692;BME280;22678;52.052;4.242;2023-03-14T01:11:15;98869.06;;;9.96;87.14
36692;BME280;22678;52.052;4.242;2023-03-14T01:13:42;98862.97;;;9.95;87.24
36692;BME280;22678;52.052;4.242;2023-03-14T01:16:09;98852.47;;;9.95;87.39
36692;BME280;22678;52.052;4.242;2023-03-14T01:18:35;98856.94;;;9.92;87.46
36692;BME280;22678;52.052;4.242;2023-03-14T01:21:02;98854.16;;;9.96;87.66
36692;BME280;22678;52.052;4.242;2023-03-14T01:23:27;98838.44;;;9.95;87.74
36692;BME280;22678;52.052;4.242;2023-03-14T01:25:53;98825.50;;;9.90;87.44
36692;BME280;22678;52.052;4.242;2023-03-14T01:28:18;98833.19;;;9.95;87.85
36692;BME280;22678;52.052;4.242;2023-03-14T01:30:43;98832.34;;;9.94;88.12
36692;BME280;22678;52.052;4.242;2023-03-14T01:33:09;98838.28;;;9.99;87.84
36692;BME280;22678;52.052;4.242;2023-03-14T01:35:34;98840.84;;;10.01;87.75
36692;BME280;22678;52.052;4.242;2023-03-14T01:37:59;98815.81;;;9.92;87.46
36692;BME280;22678;52.052;4.242;2023-03-14T01:40:25;98849.53;;;10.03;87.13
36692;BME280;22678;52.052;4.242;2023-03-14T01:42:57;98837.25;;;10.04;87.14
36692;BME280;22678;52.052;4.242;2023-03-14T01:48:28;98838.84;;;10.08;87.16
36692;BME280;22678;52.052;4.242;2023-03-14T01:50:56;98836.09;;;10.11;87.29
36692;BME280;22678;52.052;4.242;2023-03-14T01:53:22;98843.84;;;10.14;86.91
36692;BME280;22678;52.052;4.242;2023-03-14T01:55:48;98835.19;;;10.12;86.79
36692;BME280;22678;52.052;4.242;2023-03-14T01:58:16;98834.22;;;10.14;86.85
36692;BME280;22678;52.052;4.242;2023-03-14T02:00:42;98859.50;;;10.17;86.74
36692;BME280;22678;52.052;4.242;2023-03-14T02:03:14;98847.97;;;10.21;86.55
36692;BME280;22678;52.052;4.242;2023-03-14T02:05:42;98838.31;;;10.22;86.59
36692;BME280;22678;52.052;4.242;2023-03-14T02:08:14;98814.84;;;10.17;86.40
36692;BME280;22678;52.052;4.242;2023-03-14T02:10:45;98817.66;;;10.12;86.53
36692;BME280;22678;52.052;4.242;2023-03-14T02:13:14;98820.72;;;10.24;86.21
36692;BME280;22678;52.052;4.242;2023-03-14T02:15:40;98803.44;;;10.18;86.24
36692;BME280;22678;52.052;4.242;2023-03-14T02:18:06;98820.66;;;10.25;86.24
36692;BME280;22678;52.052;4.242;2023-03-14T02:20:39;98810.03;;;10.28;86.07
36692;BME280;22678;52.052;4.242;2023-03-14T02:23:07;98797.94;;;10.24;85.73
36692;BME280;22678;52.052;4.242;2023-03-14T02:25:41;98800.25;;;10.32;85.54
36692;BME280;22678;52.052;4.242;2023-03-14T02:28:09;98794.28;;;10.28;85.64
36692;BME280;22678;52.052;4.242;2023-03-14T02:30:35;98797.75;;;10.29;85.46
36692;BME280;22678;52.052;4.242;2023-03-14T02:33:23;98798.50;;;10.32;85.25
36692;BME280;22678;52.052;4.242;2023-03-14T02:35:59;98800.31;;;10.30;85.24
36692;BME280;22678;52.052;4.242;2023-03-14T02:38:35;98811.75;;;10.29;85.30
36692;BME280;22678;52.052;4.242;2023-03-14T02:41:02;98798.81;;;10.25;85.39
36692;BME280;22678;52.052;4.242;2023-03-14T02:43:28;98800.69;;;10.21;85.41
36692;BME280;22678;52.052;4.242;2023-03-14T02:45:53;98786.06;;;10.14;85.55
36692;BME280;22678;52.052;4.242;2023-03-14T02:48:28;98800.69;;;10.21;85.69
36692;BME280;22678;52.052;4.242;2023-03-14T02:50:57;98817.41;;;10.18;85.77
36692;BME280;22678;52.052;4.242;2023-03-14T02:53:28;98787.78;;;10.15;85.93
36692;BME280;22678;52.052;4.242;2023-03-14T02:55:55;98794.91;;;10.13;86.00
36692;BME280;22678;52.052;4.242;2023-03-14T02:58:20;98779.91;;;10.15;86.17
36692;BME280;22678;52.052;4.242;2023-03-14T03:00:46;98791.34;;;10.14;85.87
36692;BME280;22678;52.052;4.242;2023-03-14T03:03:12;98800.88;;;10.16;86.08
36692;BME280;22678;52.052;4.242;2023-03-14T03:05:37;98802.59;;;10.17;86.22
36692;BME280;22678;52.052;4.242;2023-03-14T03:08:03;98767.94;;;10.08;86.10
36692;BME280;22678;52.052;4.242;2023-03-14T03:10:29;98784.00;;;10.22;86.09
36692;BME280;22678;52.052;4.242;2023-03-14T03:12:54;98772.03;;;10.15;85.88
36692;BME280;22678;52.052;4.242;2023-03-14T03:15:20;98777.84;;;10.23;85.90
36692;BME280;22678;52.052;4.242;2023-03-14T03:17:45;98773.44;;;10.24;85.67
36692;BME280;22678;52.052;4.242;2023-03-14T03:20:11;98779.47;;;10.26;85.61
36692;BME280;22678;52.052;4.242;2023-03-14T03:22:37;98793.50;;;10.26;85.78
36692;BME280;22678;52.052;4.242;2023-03-14T03:25:04;98777.16;;;10.18;85.87
36692;BME280;22678;52.052;4.242;2023-03-14T03:27:31;98778.88;;;10.19;85.83
36692;BME280;22678;52.052;4.242;2023-03-14T03:29:57;98758.97;;;10.13;85.94
36692;BME280;22678;52.052;4.242;2023-03-14T03:32:22;98769.97;;;10.23;86.05
36692;BME280;22678;52.052;4.242;2023-03-14T03:34:47;98773.38;;;10.25;86.06
36692;BME280;22678;52.052;4.242;2023-03-14T03:37:13;98768.19;;;10.24;86.05
36692;BME280;22678;52.052;4.242;2023-03-14T03:39:38;98771.78;;;10.21;86.21
36692;BME280;22678;52.052;4.242;2023-03-14T03:42:03;98776.13;;;10.22;86.49
36692;BME280;22678;52.052;4.242;2023-03-14T03:44:29;98783.88;;;10.25;86.65
36692;BME280;22678;52.052;4.242;2023-03-14T03:46:54;98777.03;;;10.21;86.94
36692;BME280;22678;52.052;4.242;2023-03-14T03:49:19;98777.16;;;10.18;87.33
36692;BME280;22678;52.052;4.242;2023-03-14T03:51:44;98781.63;;;10.16;88.00
36692;BME280;22678;52.052;4.242;2023-03-14T03:54:10;98777.53;;;10.09;88.48
36692;BME280;22678;52.052;4.242;2023-03-14T03:56:35;98786.19;;;10.11;89.21
36692;BME280;22678;52.052;4.242;2023-03-14T03:59:00;98793.19;;;10.12;89.99
36692;BME280;22678;52.052;4.242;2023-03-14T04:01:26;98792.66;;;10.02;90.68
36692;BME280;22678;52.052;4.242;2023-03-14T04:03:51;98804.81;;;10.05;90.95
36692;BME280;22678;52.052;4.242;2023-03-14T04:06:16;98795.59;;;9.94;92.07
36692;BME280;22678;52.052;4.242;2023-03-14T04:08:42;98803.41;;;9.96;92.86
36692;BME280;22678;52.052;4.242;2023-03-14T04:11:08;98792.41;;;9.86;93.30
36692;BME280;22678;52.052;4.242;2023-03-14T04:13:34;98797.53;;;9.89;93.87
36692;BME280;22678;52.052;4.242;2023-03-14T04:15:59;98782.00;;;9.83;94.59
36692;BME280;22678;52.052;4.242;2023-03-14T04:18:25;98795.19;;;9.81;95.17
36692;BME280;22678;52.052;4.242;2023-03-14T04:20:52;98782.38;;;9.74;95.37
36692;BME280;22678;52.052;4.242;2023-03-14T04:23:17;98787.50;;;9.77;95.84
36692;BME280;22678;52.052;4.242;2023-03-14T04:25:43;98778.16;;;9.70;96.15
36692;BME280;22678;52.052;4.242;2023-03-14T04:28:08;98780.78;;;9.70;96.48
36692;BME280;22678;52.052;4.242;2023-03-14T04:30:33;98788.59;;;9.71;97.11
36692;BME280;22678;52.052;4.242;2023-03-14T04:32:59;98791.28;;;9.70;97.33
36692;BME280;22678;52.052;4.242;2023-03-14T04:35:24;98781.78;;;9.65;97.75
36692;BME280;22678;52.052;4.242;2023-03-14T04:37:49;98772.44;;;9.58;98.25
36692;BME280;22678;52.052;4.242;2023-03-14T04:40:17;98786.03;;;9.70;98.72
36692;BME280;22678;52.052;4.242;2023-03-14T04:42:42;98772.22;;;9.64;99.06
36692;BME280;22678;52.052;4.242;2023-03-14T04:45:08;98770.63;;;9.60;99.24
36692;BME280;22678;52.052;4.242;2023-03-14T04:47:34;98775.03;;;9.60;99.54
36692;BME280;22678;52.052;4.242;2023-03-14T04:49:59;98762.16;;;9.52;100.00
36692;BME280;22678;52.052;4.242;2023-03-14T04:52:24;98775.06;;;9.58;100.00
36692;BME280;22678;52.052;4.242;2023-03-14T04:54:49;98753.88;;;9.41;100.00
36692;BME280;22678;52.052;4.242;2023-03-14T04:57:15;98779.53;;;9.56;100.00
36692;BME280;22678;52.052;4.242;2023-03-14T04:59:40;98779.63;;;9.53;100.00
36692;BME280;22678;52.052;4.242;2023-03-14T05:02:05;98794.41;;;9.56;100.00
36692;BME280;22678;52.052;4.242;2023-03-14T05:04:31;98806.00;;;9.50;100.00
36692;BME280;22678;52.052;4.242;2023-03-14T05:06:58;98814.66;;;9.52;100.00
36692;BME280;22678;52.052;4.242;2023-03-14T05:09:23;98824.31;;;9.52;100.00
36692;BME280;22678;52.052;4.242;2023-03-14T05:11:48;98831.97;;;9.33;99.87
36692;BME280;22678;52.052;4.242;2023-03-14T05:14:14;98827.53;;;9.09;99.53
36692;BME280;22678;52.052;4.242;2023-03-14T05:16:39;98839.28;;;8.98;99.37
36692;BME280;22678;52.052;4.242;2023-03-14T05:19:05;98857.84;;;8.91;99.71
36692;BME280;22678;52.052;4.242;2023-03-14T05:21:30;98864.28;;;8.81;100.00
36692;BME280;22678;52.052;4.242;2023-03-14T05:23:55;98851.72;;;8.66;100.00
36692;BME280;22678;52.052;4.242;2023-03-14T05:26:20;98878.59;;;8.71;100.00
36692;BME280;22678;52.052;4.242;2023-03-14T05:28:46;98856.31;;;8.57;100.00
36692;BME280;22678;52.052;4.242;2023-03-14T05:31:11;98891.09;;;8.63;100.00
36692;BME280;22678;52.052;4.242;2023-03-14T05:33:37;98893.75;;;8.61;100.00
36692;BME280;22678;52.052;4.242;2023-03-14T05:36:02;98894.81;;;8.55;100.00
36692;BME280;22678;52.052;4.242;2023-03-14T05:38:28;98884.50;;;8.49;100.00
36692;BME280;22678;52.052;4.242;2023-03-14T05:40:53;98904.56;;;8.50;100.00
36692;BME280;22678;52.052;4.242;2023-03-14T05:43:18;98906.44;;;8.47;100.00
36692;BME280;22678;52.052;4.242;2023-03-14T05:45:44;98896.34;;;8.33;100.00
36692;BME280;22678;52.052;4.242;2023-03-14T05:48:09;98915.31;;;8.41;100.00
36692;BME280;22678;52.052;4.242;2023-03-14T05:50:35;98926.59;;;8.43;100.00
36692;BME280;22678;52.052;4.242;2023-03-14T05:53:00;98935.44;;;8.39;100.00
36692;BME280;22678;52.052;4.242;2023-03-14T05:55:25;98930.38;;;8.33;100.00
36692;BME280;22678;52.052;4.242;2023-03-14T05:57:52;98940.91;;;8.31;100.00
36692;BME280;22678;52.052;4.242;2023-03-14T06:00:18;98951.38;;;8.31;100.00
36692;BME280;22678;52.052;4.242;2023-03-14T06:02:43;98964.44;;;8.33;100.00
36692;BME280;22678;52.052;4.242;2023-03-14T06:05:08;98949.84;;;8.24;100.00
36692;BME280;22678;52.052;4.242;2023-03-14T06:07:34;98976.97;;;8.21;100.00
36692;BME280;22678;52.052;4.242;2023-03-14T06:09:59;98964.06;;;8.15;99.65
36692;BME280;22678;52.052;4.242;2023-03-14T06:12:24;98974.63;;;8.12;99.39
36692;BME280;22678;52.052;4.242;2023-03-14T06:14:50;98990.41;;;8.09;99.41
36692;BME280;22678;52.052;4.242;2023-03-14T06:17:16;98992.22;;;8.07;99.41
36692;BME280;22678;52.052;4.242;2023-03-14T06:19:42;98990.69;;;8.00;99.27
36692;BME280;22678;52.052;4.242;2023-03-14T06:22:07;99003.75;;;8.00;99.22
36692;BME280;22678;52.052;4.242;2023-03-14T06:24:32;99003.91;;;7.95;99.46
36692;BME280;22678;52.052;4.242;2023-03-14T06:26:58;99017.75;;;7.99;99.30
36692;BME280;22678;52.052;4.242;2023-03-14T06:29:23;99020.28;;;8.02;99.42
36692;BME280;22678;52.052;4.242;2023-03-14T06:31:48;99022.09;;;8.00;99.54
36692;BME280;22678;52.052;4.242;2023-03-14T06:34:13;99025.59;;;7.99;99.36
36692;BME280;22678;52.052;4.242;2023-03-14T06:36:39;98988.13;;;7.64;99.24
36692;BME280;22678;52.052;4.242;2023-03-14T06:39:05;99052.53;;;8.04;99.12
36692;BME280;22678;52.052;4.242;2023-03-14T06:41:31;99049.97;;;8.01;99.09
36692;BME280;22678;52.052;4.242;2023-03-14T06:43:57;99065.63;;;8.04;99.66
36692;BME280;22678;52.052;4.242;2023-03-14T06:46:23;99080.44;;;8.03;98.95
36692;BME280;22678;52.052;4.242;2023-03-14T06:48:48;99081.47;;;7.98;98.99
36692;BME280;22678;52.052;4.242;2023-03-14T06:51:13;99097.03;;;8.04;99.06
36692;BME280;22678;52.052;4.242;2023-03-14T06:53:39;99100.63;;;8.00;98.86
36692;BME280;22678;52.052;4.242;2023-03-14T06:56:04;99102.41;;;7.98;98.59
36692;BME280;22678;52.052;4.242;2023-03-14T06:58:30;99121.69;;;7.95;98.54
36692;BME280;22678;52.052;4.242;2023-03-14T07:00:55;99120.88;;;7.92;98.48
36692;BME280;22678;52.052;4.242;2023-03-14T07:03:22;99142.59;;;7.97;98.45
36692;BME280;22678;52.052;4.242;2023-03-14T07:05:47;99144.34;;;7.95;98.58
36692;BME280;22678;52.052;4.242;2023-03-14T07:08:12;99156.47;;;7.99;98.82
36692;BME280;22678;52.052;4.242;2023-03-14T07:10:38;99152.16;;;7.96;98.38
36692;BME280;22678;52.052;4.242;2023-03-14T07:13:03;99165.31;;;7.95;98.36
36692;BME280;22678;52.052;4.242;2023-03-14T07:15:28;99160.28;;;7.85;98.39
36692;BME280;22678;52.052;4.242;2023-03-14T07:17:54;99172.50;;;7.86;98.29
36692;BME280;22678;52.052;4.242;2023-03-14T07:20:19;99182.88;;;7.89;98.15
36692;BME280;22678;52.052;4.242;2023-03-14T07:22:49;99204.56;;;7.95;97.89
36692;BME280;22678;52.052;4.242;2023-03-14T07:25:15;99200.47;;;7.83;97.91
36692;BME280;22678;52.052;4.242;2023-03-14T07:27:44;99227.38;;;7.89;97.89
36692;BME280;22678;52.052;4.242;2023-03-14T07:30:10;99235.38;;;7.83;97.65
36692;BME280;22678;52.052;4.242;2023-03-14T07:32:36;99241.59;;;7.78;97.66
36692;BME280;22678;52.052;4.242;2023-03-14T07:35:01;99249.75;;;7.64;97.14
36692;BME280;22678;52.052;4.242;2023-03-14T07:37:26;99280.09;;;7.72;97.23
36692;BME280;22678;52.052;4.242;2023-03-14T07:39:52;99294.94;;;7.72;97.36
36692;BME280;22678;52.052;4.242;2023-03-14T07:42:17;99291.59;;;7.64;97.41
36692;BME280;22678;52.052;4.242;2023-03-14T07:44:42;99307.41;;;7.59;96.71
36692;BME280;22678;52.052;4.242;2023-03-14T07:47:07;99330.97;;;7.58;96.14
36692;BME280;22678;52.052;4.242;2023-03-14T07:49:33;99333.81;;;7.47;96.17
36692;BME280;22678;52.052;4.242;2023-03-14T07:51:58;99344.22;;;7.50;96.25
36692;BME280;22678;52.052;4.242;2023-03-14T07:54:24;99366.91;;;7.49;96.33
36692;BME280;22678;52.052;4.242;2023-03-14T07:56:50;99381.00;;;7.42;95.63
36692;BME280;22678;52.052;4.242;2023-03-14T07:59:16;99382.00;;;7.35;95.58
36692;BME280;22678;52.052;4.242;2023-03-14T08:01:41;99402.91;;;7.35;95.06
36692;BME280;22678;52.052;4.242;2023-03-14T08:04:07;99410.78;;;7.33;94.91
36692;BME280;22678;52.052;4.242;2023-03-14T08:06:32;99412.63;;;7.28;95.07
36692;BME280;22678;52.052;4.242;2023-03-14T08:08:57;99416.19;;;7.23;94.96
36692;BME280;22678;52.052;4.242;2023-03-14T08:11:23;99451.09;;;7.22;94.58
36692;BME280;22678;52.052;4.242;2023-03-14T08:13:48;99451.16;;;7.15;94.42
36692;BME280;22678;52.052;4.242;2023-03-14T08:16:19;99465.09;;;7.17;94.18
36692;BME280;22678;52.052;4.242;2023-03-14T08:18:45;99465.25;;;7.08;93.87
36692;BME280;22678;52.052;4.242;2023-03-14T08:21:11;99472.25;;;7.06;93.58
36692;BME280;22678;52.052;4.242;2023-03-14T08:23:36;99501.97;;;6.99;93.34
36692;BME280;22678;52.052;4.242;2023-03-14T08:26:01;99502.06;;;6.93;93.04
36692;BME280;22678;52.052;4.242;2023-03-14T08:28:27;99513.38;;;6.96;92.70
36692;BME280;22678;52.052;4.242;2023-03-14T08:30:57;99530.00;;;6.91;91.94
36692;BME280;22678;52.052;4.242;2023-03-14T08:33:23;99528.31;;;6.85;91.96
36692;BME280;22678;52.052;4.242;2023-03-14T08:35:51;99542.16;;;6.92;91.67
36692;BME280;22678;52.052;4.242;2023-03-14T08:38:17;99542.09;;;6.95;91.18
36692;BME280;22678;52.052;4.242;2023-03-14T08:40:42;99560.28;;;7.06;90.55
36692;BME280;22678;52.052;4.242;2023-03-14T08:43:07;99581.91;;;7.15;89.28
36692;BME280;22678;52.052;4.242;2023-03-14T08:45:33;99581.81;;;7.22;87.79
36692;BME280;22678;52.052;4.242;2023-03-14T08:47:58;99599.16;;;7.29;87.35
36692;BME280;22678;52.052;4.242;2023-03-14T08:50:24;99611.31;;;7.30;85.92
36692;BME280;22678;52.052;4.242;2023-03-14T08:52:49;99613.97;;;7.28;85.11
36692;BME280;22678;52.052;4.242;2023-03-14T08:55:15;99621.75;;;7.33;84.94
36692;BME280;22678;52.052;4.242;2023-03-14T08:57:40;99625.16;;;7.38;84.87
36692;BME280;22678;52.052;4.242;2023-03-14T09:00:06;99634.59;;;7.48;84.49
36692;BME280;22678;52.052;4.242;2023-03-14T09:02:41;99634.47;;;7.56;84.08
36692;BME280;22678;52.052;4.242;2023-03-14T09:05:08;99654.31;;;7.71;83.51
36692;BME280;22678;52.052;4.242;2023-03-14T09:07:35;99651.66;;;7.72;82.58
36692;BME280;22678;52.052;4.242;2023-03-14T09:10:00;99680.31;;;7.83;82.39
36692;BME280;22678;52.052;4.242;2023-03-14T09:12:25;99687.19;;;7.87;81.95
36692;BME280;22678;52.052;4.242;2023-03-14T09:14:51;99700.25;;;7.89;81.79
36692;BME280;22678;52.052;4.242;2023-03-14T09:17:16;99695.19;;;7.80;81.87
36692;BME280;22678;52.052;4.242;2023-03-14T09:19:41;99704.91;;;7.73;81.59
36692;BME280;22678;52.052;4.242;2023-03-14T09:22:07;99731.13;;;7.67;81.48
36692;BME280;22678;52.052;4.242;2023-03-14T09:24:32;99750.44;;;7.60;81.73
36692;BME280;22678;52.052;4.242;2023-03-14T09:26:57;99738.38;;;7.49;82.20
36692;BME280;22678;52.052;4.242;2023-03-14T09:29:23;99767.97;;;7.51;82.70
36692;BME280;22678;52.052;4.242;2023-03-14T09:31:49;99771.50;;;7.47;83.05
36692;BME280;22678;52.052;4.242;2023-03-14T09:34:14;99785.56;;;7.40;83.27
36692;BME280;22678;52.052;4.242;2023-03-14T09:36:40;99793.47;;;7.34;83.22
36692;BME280;22678;52.052;4.242;2023-03-14T09:39:05;99777.91;;;7.23;83.85
36692;BME280;22678;52.052;4.242;2023-03-14T09:41:34;99802.22;;;7.30;83.50
36692;BME280;22678;52.052;4.242;2023-03-14T09:44:05;99815.22;;;7.36;83.99
36692;BME280;22678;52.052;4.242;2023-03-14T09:46:36;99804.84;;;7.30;84.46
36692;BME280;22678;52.052;4.242;2023-03-14T09:49:10;99822.16;;;7.40;84.78
36692;BME280;22678;52.052;4.242;2023-03-14T09:51:37;99826.53;;;7.41;84.75
36692;BME280;22678;52.052;4.242;2023-03-14T09:54:04;99827.31;;;7.46;84.78
36692;BME280;22678;52.052;4.242;2023-03-14T09:56:32;99844.69;;;7.53;84.61
36692;BME280;22678;52.052;4.242;2023-03-14T09:59:13;99791.91;;;7.19;84.10
36692;BME280;22678;52.052;4.242;2023-03-14T10:01:39;99861.22;;;7.59;84.17
36692;BME280;22678;52.052;4.242;2023-03-14T10:04:18;99886.34;;;7.72;84.15
36692;BME280;22678;52.052;4.242;2023-03-14T10:06:45;99887.13;;;7.79;83.89
36692;BME280;22678;52.052;4.242;2023-03-14T10:09:19;99881.81;;;7.86;83.72
36692;BME280;22678;52.052;4.242;2023-03-14T10:11:51;99892.19;;;7.94;82.37
36692;BME280;22678;52.052;4.242;2023-03-14T10:14:37;99917.34;;;8.06;80.76
36692;BME280;22678;52.052;4.242;2023-03-14T10:17:12;99926.06;;;8.05;78.90
36692;BME280;22678;52.052;4.242;2023-03-14T10:19:51;99931.38;;;7.99;78.57
36692;BME280;22678;52.052;4.242;2023-03-14T10:22:18;99959.22;;;8.06;78.12
36692;BME280;22678;52.052;4.242;2023-03-14T10:24:52;99965.38;;;8.02;77.42
36692;BME280;22678;52.052;4.242;2023-03-14T10:27:22;99966.31;;;7.96;76.10
36692;BME280;22678;52.052;4.242;2023-03-14T10:29:59;99989.88;;;7.96;74.82
36692;BME280;22678;52.052;4.242;2023-03-14T10:32:35;99980.38;;;7.87;74.54
36692;BME280;22678;52.052;4.242;2023-03-14T10:37:49;99997.91;;;7.82;73.46
36692;BME280;22678;52.052;4.242;2023-03-14T10:40:16;100013.63;;;7.79;72.22
36692;BME280;22678;52.052;4.242;2023-03-14T10:42:43;100024.09;;;7.81;72.32
36692;BME280;22678;52.052;4.242;2023-03-14T10:45:35;100043.19;;;7.91;72.53
36692;BME280;22678;52.052;4.242;2023-03-14T10:48:52;100050.94;;;8.00;72.17
36692;BME280;22678;52.052;4.242;2023-03-14T10:50:58;100037.00;;;7.98;71.57
36692;BME280;22678;52.052;4.242;2023-03-14T10:53:26;100054.44;;;7.99;71.05
36692;BME280;22678;52.052;4.242;2023-03-14T10:55:52;100058.81;;;8.00;70.48
36692;BME280;22678;52.052;4.242;2023-03-14T10:58:26;100065.53;;;8.22;70.28
36692;BME280;22678;52.052;4.242;2023-03-14T11:03:31;100097.94;;;8.91;67.62
36692;BME280;22678;52.052;4.242;2023-03-14T11:06:05;100098.50;;;9.14;64.82
36692;BME280;22678;52.052;4.242;2023-03-14T11:08:34;100114.72;;;9.40;63.87
36692;BME280;22678;52.052;4.242;2023-03-14T11:11:11;100125.84;;;9.58;62.58
36692;BME280;22678;52.052;4.242;2023-03-14T11:13:57;100130.09;;;9.67;61.40
36692;BME280;22678;52.052;4.242;2023-03-14T11:22:28;100163.41;;;10.16;58.51
36692;BME280;22678;52.052;4.242;2023-03-14T11:25:01;100173.81;;;10.22;57.30
36692;BME280;22678;52.052;4.242;2023-03-14T11:27:43;100177.94;;;10.39;57.68
36692;BME280;22678;52.052;4.242;2023-03-14T11:30:24;100181.25;;;10.50;57.47
36692;BME280;22678;52.052;4.242;2023-03-14T11:33:03;100185.19;;;10.73;56.79
36692;BME280;22678;52.052;4.242;2023-03-14T11:35:33;100209.41;;;10.90;55.47
36692;BME280;22678;52.052;4.242;2023-03-14T11:38:22;100220.91;;;10.84;55.66
36692;BME280;22678;52.052;4.242;2023-03-14T11:40:51;100219.22;;;10.80;56.31
36692;BME280;22678;52.052;4.242;2023-03-14T11:43:38;100228.88;;;10.80;56.30
36692;BME280;22678;52.052;4.242;2023-03-14T11:48:43;100252.75;;;10.71;56.43
36692;BME280;22678;52.052;4.242;2023-03-14T11:51:17;100250.28;;;10.60;56.67
36692;BME280;22678;52.052;4.242;2023-03-14T11:53:57;100273.84;;;10.64;56.39
36692;BME280;22678;52.052;4.242;2023-03-14T11:56:37;100266.94;;;10.60;54.71
36692;BME280;22678;52.052;4.242;2023-03-14T11:59:09;100270.28;;;10.68;54.69
36692;BME280;22678;52.052;4.242;2023-03-14T12:07:23;100293.00;;;10.73;52.05
36692;BME280;22678;52.052;4.242;2023-03-14T12:09:53;100284.28;;;10.71;52.18
36692;BME280;22678;52.052;4.242;2023-03-14T12:12:22;100296.38;;;10.81;52.39
36692;BME280;22678;52.052;4.242;2023-03-14T12:14:57;100297.97;;;10.91;52.58
36692;BME280;22678;52.052;4.242;2023-03-14T12:20:03;100313.53;;;11.02;52.02
36692;BME280;22678;52.052;4.242;2023-03-14T12:22:41;100313.56;;;11.00;52.23
36692;BME280;22678;52.052;4.242;2023-03-14T12:28:03;100330.25;;;10.98;51.87
36692;BME280;22678;52.052;4.242;2023-03-14T12:30:37;100326.84;;;10.94;51.79
36692;BME280;22678;52.052;4.242;2023-03-14T12:35:40;100337.41;;;11.39;50.30
36692;BME280;22678;52.052;4.242;2023-03-14T12:38:12;100335.34;;;11.54;49.28
36692;BME280;22678;52.052;4.242;2023-03-14T12:41:05;100340.72;;;11.48;49.29
36692;BME280;22678;52.052;4.242;2023-03-14T12:43:33;100363.34;;;11.58;48.79
36692;BME280;22678;52.052;4.242;2023-03-14T12:48:34;100378.91;;;11.70;48.23
36692;BME280;22678;52.052;4.242;2023-03-14T12:51:11;100369.41;;;11.63;46.79
36692;BME280;22678;52.052;4.242;2023-03-14T12:56:45;100401.41;;;11.87;45.95
36692;BME280;22678;52.052;4.242;2023-03-14T12:59:26;100415.59;;;11.80;45.69
36692;BME280;22678;52.052;4.242;2023-03-14T13:01:55;100418.66;;;11.58;45.81
36692;BME280;22678;52.052;4.242;2023-03-14T13:12:28;100437.53;;;10.80;47.15
36692;BME280;22678;52.052;4.242;2023-03-14T13:14:57;100452.56;;;10.74;47.24
36692;BME280;22678;52.052;4.242;2023-03-14T13:17:30;100445.72;;;10.62;46.63
36692;BME280;22678;52.052;4.242;2023-03-14T13:19:57;100476.44;;;10.58;46.14
36692;BME280;22678;52.052;4.242;2023-03-14T13:22:28;100466.09;;;10.46;45.75
36692;BME280;22678;52.052;4.242;2023-03-14T13:25:10;100472.38;;;10.36;45.74
36692;BME280;22678;52.052;4.242;2023-03-14T13:27:36;100482.88;;;10.36;46.05
36692;BME280;22678;52.052;4.242;2023-03-14T13:32:42;100489.03;;;10.34;46.40
36692;BME280;22678;52.052;4.242;2023-03-14T13:35:25;100496.88;;;10.33;46.76
36692;BME280;22678;52.052;4.242;2023-03-14T13:37:57;100503.06;;;10.33;47.67
36692;BME280;22678;52.052;4.242;2023-03-14T13:40:33;100507.41;;;10.34;48.36
36692;BME280;22678;52.052;4.242;2023-03-14T13:43:05;100489.94;;;10.27;48.41
36692;BME280;22678;52.052;4.242;2023-03-14T13:45:31;100524.94;;;10.32;47.86
36692;BME280;22678;52.052;4.242;2023-03-14T13:47:56;100525.00;;;10.29;48.28
36692;BME280;22678;52.052;4.242;2023-03-14T13:50:22;100514.56;;;10.20;48.24
36692;BME280;22678;52.052;4.242;2023-03-14T13:52:54;100528.50;;;10.28;48.84